createdAt,value
2018-06-29T00:00:26.745Z,99.90
2018-06-29T00:02:54.871Z,99.90
2018-06-29T00:05:22.995Z,99.90
2018-06-29T00:07:51.154Z,99.90
2018-06-29T00:10:22.726Z,99.90
2018-06-29T00:12:51.084Z,99.90
2018-06-29T00:15:19.417Z,99.90
2018-06-29T00:17:47.549Z,99.90
2018-06-29T00:20:15.658Z,99.90
2018-06-29T00:22:43.778Z,99.90
2018-06-29T00:25:11.887Z,99.90
2018-06-29T00:27:39.983Z,99.90
2018-06-29T00:30:08.135Z,99.90
2018-06-29T00:32:36.334Z,99.90
2018-06-29T00:35:04.506Z,99.90
2018-06-29T00:37:32.654Z,99.90
2018-06-29T00:40:00.766Z,99.90
2018-06-29T00:42:28.920Z,99.90
2018-06-29T00:44:57.055Z,99.90
2018-06-29T00:47:25.191Z,99.90
2018-06-29T00:49:53.306Z,99.90
2018-06-29T00:52:21.431Z,99.90
2018-06-29T00:54:49.533Z,99.90
2018-06-29T00:57:17.662Z,99.90
2018-06-29T00:59:45.769Z,99.90
2018-06-29T01:02:13.893Z,99.90
2018-06-29T01:04:42.020Z,99.90
2018-06-29T01:07:10.150Z,99.90
2018-06-29T01:09:38.281Z,99.90
2018-06-29T01:12:06.505Z,99.90
2018-06-29T01:14:34.612Z,99.90
2018-06-29T01:17:02.755Z,99.80
2018-06-29T01:19:30.871Z,99.80
2018-06-29T01:21:59.021Z,99.80
2018-06-29T01:24:27.162Z,99.70
2018-06-29T01:26:55.930Z,99.90
2018-06-29T01:29:24.045Z,99.90
2018-06-29T01:31:52.165Z,99.90
2018-06-29T01:34:20.301Z,99.90
2018-06-29T01:36:48.424Z,99.90
2018-06-29T01:39:16.569Z,99.90
2018-06-29T01:44:37.722Z,99.90
2018-06-29T01:47:05.898Z,99.90
2018-06-29T01:49:34.049Z,99.90
2018-06-29T01:52:02.221Z,99.90
2018-06-29T01:54:30.364Z,99.90
2018-06-29T01:56:58.547Z,99.90
2018-06-29T01:59:26.851Z,99.90
2018-06-29T02:01:55.038Z,99.90
2018-06-29T02:04:23.166Z,99.90
2018-06-29T02:06:51.277Z,99.90
2018-06-29T02:09:19.425Z,99.90
2018-06-29T02:11:48.581Z,99.90
2018-06-29T02:14:16.701Z,99.90
2018-06-29T02:16:44.852Z,99.90
2018-06-29T02:19:13.017Z,99.90
2018-06-29T02:21:41.164Z,99.90
2018-06-29T02:24:09.294Z,99.90
2018-06-29T02:26:37.462Z,99.90
2018-06-29T02:29:05.589Z,99.90
2018-06-29T02:31:33.718Z,99.90
2018-06-29T02:34:01.845Z,99.90
2018-06-29T02:36:30.179Z,99.90
2018-06-29T02:38:58.298Z,99.90
2018-06-29T02:41:26.453Z,99.90
2018-06-29T02:43:54.593Z,99.90
2018-06-29T02:46:22.722Z,99.90
2018-06-29T02:48:50.869Z,99.90
2018-06-29T02:51:19.019Z,99.90
2018-06-29T02:53:47.161Z,99.90
2018-06-29T02:56:15.329Z,99.90
2018-06-29T02:58:43.507Z,99.90
2018-06-29T03:01:11.629Z,99.90
2018-06-29T03:03:39.748Z,99.90
2018-06-29T03:06:07.866Z,99.90
2018-06-29T03:08:36.027Z,99.90
2018-06-29T03:11:04.168Z,99.90
2018-06-29T03:13:32.291Z,99.90
2018-06-29T03:16:00.442Z,99.90
2018-06-29T03:18:28.594Z,99.90
2018-06-29T03:20:56.718Z,99.90
2018-06-29T03:23:24.869Z,99.90
2018-06-29T03:25:53.019Z,99.90
2018-06-29T03:28:21.146Z,99.90
2018-06-29T03:30:49.270Z,99.90
2018-06-29T03:33:17.402Z,99.90
2018-06-29T03:35:45.604Z,99.90
2018-06-29T03:38:13.775Z,99.90
2018-06-29T03:40:41.981Z,99.90
2018-06-29T03:43:10.143Z,99.90
2018-06-29T03:45:38.302Z,99.90
2018-06-29T03:48:06.441Z,99.90
2018-06-29T03:50:34.539Z,99.90
2018-06-29T03:53:02.722Z,99.90
2018-06-29T03:55:30.898Z,99.90
2018-06-29T03:57:59.027Z,99.90
2018-06-29T04:00:27.139Z,99.90
2018-06-29T04:02:55.271Z,99.90
2018-06-29T04:05:23.421Z,99.90
2018-06-29T04:07:51.558Z,99.90
2018-06-29T04:10:19.890Z,99.90
2018-06-29T04:12:48.062Z,99.90
2018-06-29T04:15:16.177Z,99.90
2018-06-29T04:17:44.295Z,99.90
2018-06-29T04:20:12.452Z,99.90
2018-06-29T04:22:40.562Z,99.90
2018-06-29T04:25:08.696Z,99.90
2018-06-29T04:27:36.858Z,99.90
2018-06-29T04:30:05.226Z,99.90
2018-06-29T04:32:33.382Z,99.90
2018-06-29T04:35:01.527Z,99.90
2018-06-29T04:37:30.190Z,99.90
2018-06-29T04:39:58.437Z,99.90
2018-06-29T04:42:26.724Z,99.90
2018-06-29T04:44:54.871Z,99.80
2018-06-29T04:47:23.068Z,99.60
2018-06-29T04:49:51.269Z,99.50
2018-06-29T04:52:19.510Z,98.90
2018-06-29T04:54:47.650Z,98.70
2018-06-29T04:57:15.860Z,98.70
2018-06-29T04:59:44.071Z,98.60
2018-06-29T05:02:12.757Z,98.80
2018-06-29T05:04:41.292Z,98.20
2018-06-29T05:07:09.439Z,98.20
2018-06-29T05:09:37.567Z,97.90
2018-06-29T05:12:05.844Z,97.80
2018-06-29T05:14:34.077Z,97.60
2018-06-29T05:17:02.241Z,97.50
2018-06-29T05:19:30.508Z,97.30
2018-06-29T05:21:58.889Z,97.30
2018-06-29T05:24:27.047Z,97.10
2018-06-29T05:26:55.195Z,97.10
2018-06-29T05:29:23.334Z,97.00
2018-06-29T05:31:51.458Z,97.00
2018-06-29T05:34:19.555Z,97.10
2018-06-29T05:36:47.695Z,97.30
2018-06-29T05:39:15.821Z,97.00
2018-06-29T05:41:44.005Z,96.90
2018-06-29T05:44:12.106Z,96.90
2018-06-29T05:46:40.243Z,97.20
2018-06-29T05:49:09.083Z,95.90
2018-06-29T05:51:37.613Z,94.70
2018-06-29T05:54:05.908Z,93.90
2018-06-29T05:56:34.085Z,93.60
2018-06-29T05:59:02.247Z,92.80
2018-06-29T06:01:30.387Z,93.10
2018-06-29T06:03:58.555Z,92.70
2018-06-29T06:06:26.684Z,92.80
2018-06-29T06:08:54.870Z,92.90
2018-06-29T06:11:22.993Z,92.40
2018-06-29T06:13:56.724Z,91.70
2018-06-29T06:16:25.267Z,88.90
2018-06-29T06:21:02.991Z,86.40
2018-06-29T06:23:31.109Z,83.80
2018-06-29T06:25:59.254Z,81.80
2018-06-29T06:28:27.397Z,80.80
2018-06-29T06:30:55.510Z,80.30
2018-06-29T06:33:23.667Z,79.20
2018-06-29T06:35:51.811Z,78.70
2018-06-29T06:38:19.906Z,77.40
2018-06-29T06:40:48.022Z,76.80
2018-06-29T06:43:16.171Z,76.90
2018-06-29T06:45:44.303Z,77.70
2018-06-29T06:48:12.423Z,77.10
2018-06-29T06:50:40.530Z,77.00
2018-06-29T06:53:08.653Z,77.60
2018-06-29T06:55:36.775Z,77.50
2018-06-29T06:58:04.940Z,77.10
2018-06-29T07:00:33.062Z,78.00
2018-06-29T07:03:01.199Z,78.00
2018-06-29T07:05:29.301Z,78.30
2018-06-29T07:07:58.252Z,79.20
2018-06-29T07:10:26.395Z,79.40
2018-06-29T07:12:54.543Z,79.30
2018-06-29T07:15:22.677Z,78.20
2018-06-29T07:17:50.862Z,78.10
2018-06-29T07:20:19.010Z,76.50
2018-06-29T07:22:47.192Z,73.90
2018-06-29T07:25:15.346Z,73.10
2018-06-29T07:27:43.504Z,72.00
2018-06-29T07:30:11.625Z,71.20
2018-06-29T07:32:42.613Z,70.60
2018-06-29T07:35:11.659Z,68.90
2018-06-29T07:37:39.783Z,66.60
2018-06-29T07:40:07.919Z,64.70
2018-06-29T07:42:36.058Z,61.90
2018-06-29T07:45:04.402Z,61.00
2018-06-29T07:47:32.571Z,59.50
2018-06-29T07:50:00.703Z,59.60
2018-06-29T07:52:28.841Z,59.40
2018-06-29T07:54:56.979Z,58.50
2018-06-29T07:57:25.113Z,58.40
2018-06-29T07:59:53.229Z,59.00
2018-06-29T08:02:21.383Z,58.70
2018-06-29T08:04:49.490Z,58.30
2018-06-29T08:07:17.619Z,57.80
2018-06-29T08:09:45.753Z,56.90
2018-06-29T08:12:13.865Z,56.80
2018-06-29T08:14:41.983Z,56.90
2018-06-29T08:17:10.139Z,56.90
2018-06-29T08:19:38.259Z,55.60
2018-06-29T08:22:06.578Z,55.20
2018-06-29T08:24:35.619Z,55.20
2018-06-29T08:27:03.748Z,55.10
2018-06-29T08:29:31.890Z,56.20
2018-06-29T08:31:59.998Z,56.20
2018-06-29T08:34:28.139Z,55.80
2018-06-29T08:36:56.275Z,56.10
2018-06-29T08:39:24.423Z,56.50
2018-06-29T08:41:52.799Z,56.40
2018-06-29T08:44:20.969Z,55.70
2018-06-29T08:46:49.158Z,54.50
2018-06-29T08:49:17.211Z,53.70
2018-06-29T08:51:45.323Z,54.50
2018-06-29T08:54:13.455Z,54.60
2018-06-29T08:56:41.627Z,54.20
2018-06-29T08:59:09.763Z,54.90
2018-06-29T09:01:37.867Z,55.50
2018-06-29T09:04:06.039Z,55.80
2018-06-29T09:06:34.153Z,55.50
2018-06-29T09:09:02.454Z,55.60
2018-06-29T09:11:30.564Z,55.60
2018-06-29T09:13:58.697Z,55.20
2018-06-29T09:16:26.826Z,54.20
2018-06-29T09:18:54.965Z,53.80
2018-06-29T09:21:23.086Z,53.60
2018-06-29T09:23:51.219Z,53.20
2018-06-29T09:26:19.352Z,53.60
2018-06-29T09:28:47.449Z,53.00
2018-06-29T09:31:15.588Z,52.80
2018-06-29T09:33:43.683Z,51.40
2018-06-29T09:36:11.883Z,51.80
2018-06-29T09:38:40.007Z,51.60
2018-06-29T09:41:08.195Z,52.00
2018-06-29T09:43:36.313Z,52.40
2018-06-29T09:46:04.467Z,52.70
2018-06-29T09:48:32.834Z,53.30
2018-06-29T09:51:00.946Z,53.00
2018-06-29T09:53:29.061Z,52.30
2018-06-29T09:55:57.195Z,52.10
2018-06-29T09:58:25.337Z,51.80
2018-06-29T10:00:55.415Z,51.90
2018-06-29T10:03:21.590Z,51.70
2018-06-29T10:05:49.719Z,51.00
2018-06-29T10:08:17.886Z,51.60
2018-06-29T10:10:45.994Z,50.50
2018-06-29T10:13:14.097Z,51.00
2018-06-29T10:15:42.488Z,50.00
2018-06-29T10:18:10.598Z,50.00
2018-06-29T10:20:38.713Z,49.70
2018-06-29T10:23:06.862Z,50.10
2018-06-29T10:25:35.055Z,50.30
2018-06-29T10:28:03.110Z,50.50
2018-06-29T10:30:31.205Z,50.30
2018-06-29T10:32:59.331Z,50.70
2018-06-29T10:35:27.443Z,51.70
2018-06-29T10:37:55.552Z,51.70
2018-06-29T10:40:23.676Z,51.80
2018-06-29T10:42:51.826Z,50.00
2018-06-29T10:45:20.029Z,49.90
2018-06-29T10:47:48.163Z,51.50
2018-06-29T10:50:16.300Z,51.70
2018-06-29T10:52:44.459Z,51.70
2018-06-29T10:55:12.562Z,51.00
2018-06-29T10:57:40.725Z,51.50
2018-06-29T11:00:08.844Z,51.90
2018-06-29T11:02:37.507Z,52.40
2018-06-29T11:05:05.670Z,52.50
2018-06-29T11:07:33.926Z,52.10
2018-06-29T11:10:02.913Z,52.30
2018-06-29T11:12:31.537Z,51.50
2018-06-29T11:14:59.711Z,51.60
2018-06-29T11:17:28.106Z,51.20
2018-06-29T11:19:56.369Z,49.70
2018-06-29T11:22:24.719Z,48.90
2018-06-29T11:24:52.935Z,48.40
2018-06-29T11:27:21.083Z,47.40
2018-06-29T11:29:55.530Z,47.60
2018-06-29T11:32:23.695Z,44.90
2018-06-29T11:34:51.833Z,45.60
2018-06-29T11:37:19.966Z,47.40
2018-06-29T11:39:48.116Z,46.70
2018-06-29T11:42:16.302Z,45.80
2018-06-29T11:44:44.448Z,44.70
2018-06-29T11:47:12.623Z,45.00
2018-06-29T11:49:40.792Z,45.10
2018-06-29T11:52:09.026Z,44.40
2018-06-29T11:54:37.146Z,44.30
2018-06-29T11:57:05.565Z,44.00
2018-06-29T12:00:36.282Z,44.10
2018-06-29T12:03:04.438Z,44.70
2018-06-29T12:05:32.578Z,43.70
2018-06-29T12:08:00.689Z,43.60
2018-06-29T12:10:28.809Z,43.80
2018-06-29T12:12:57.039Z,42.30
2018-06-29T12:15:25.209Z,42.30
2018-06-29T12:17:55.234Z,42.20
2018-06-29T12:20:23.435Z,42.70
2018-06-29T12:22:51.967Z,42.90
2018-06-29T12:25:20.328Z,42.70
2018-06-29T12:27:48.700Z,42.80
2018-06-29T12:30:17.039Z,42.30
2018-06-29T12:32:45.244Z,42.80
2018-06-29T12:35:13.570Z,42.90
2018-06-29T12:37:41.980Z,42.20
2018-06-29T12:40:10.289Z,41.40
2018-06-29T12:42:38.528Z,41.20
2018-06-29T12:45:06.807Z,41.80
2018-06-29T12:47:35.051Z,41.30
2018-06-29T12:50:03.381Z,41.50
2018-06-29T12:52:31.724Z,41.90
2018-06-29T12:55:00.083Z,41.70
2018-06-29T12:57:28.066Z,41.80
2018-06-29T12:59:56.275Z,41.40
2018-06-29T13:02:24.412Z,41.50
2018-06-29T13:04:53.785Z,40.60
2018-06-29T13:07:22.131Z,40.60
2018-06-29T13:09:50.535Z,40.10
2018-06-29T13:12:18.846Z,39.90
2018-06-29T13:14:47.186Z,39.70
2018-06-29T13:17:15.382Z,39.30
2018-06-29T13:19:43.832Z,39.40
2018-06-29T13:22:12.212Z,39.40
2018-06-29T13:24:40.393Z,39.70
2018-06-29T13:27:08.694Z,39.20
2018-06-29T13:29:37.009Z,40.40
2018-06-29T13:32:05.431Z,39.90
2018-06-29T13:34:33.818Z,39.10
2018-06-29T13:37:02.084Z,38.10
2018-06-29T13:39:30.330Z,36.90
2018-06-29T13:41:58.571Z,37.20
2018-06-29T13:44:27.035Z,36.20
2018-06-29T13:46:55.148Z,36.10
2018-06-29T13:49:23.265Z,36.80
2018-06-29T13:51:51.382Z,37.60
2018-06-29T13:54:19.515Z,37.20
2018-06-29T13:56:47.669Z,37.60
2018-06-29T13:59:15.798Z,38.90
2018-06-29T14:01:43.933Z,40.50
2018-06-29T14:04:12.057Z,41.30
2018-06-29T14:06:40.187Z,40.50
2018-06-29T14:09:08.314Z,39.20
2018-06-29T14:11:36.477Z,37.50
2018-06-29T14:14:04.607Z,38.10
2018-06-29T14:16:32.784Z,38.30
2018-06-29T14:19:00.889Z,37.40
2018-06-29T14:21:29.035Z,36.40
2018-06-29T14:23:57.150Z,36.70
2018-06-29T14:26:25.287Z,35.10
2018-06-29T14:28:53.504Z,35.70
2018-06-29T14:31:21.634Z,36.30
2018-06-29T14:33:49.768Z,37.40
2018-06-29T14:36:17.904Z,38.10
2018-06-29T14:38:46.051Z,39.60
2018-06-29T14:41:14.164Z,40.30
2018-06-29T14:43:42.290Z,40.70
2018-06-29T14:48:44.849Z,40.60
2018-06-29T14:51:13.099Z,38.70
2018-06-29T14:53:41.194Z,37.00
2018-06-29T14:56:09.295Z,36.20
2018-06-29T14:58:37.657Z,34.90
2018-06-29T15:01:05.800Z,34.60
2018-06-29T15:03:33.890Z,33.70
2018-06-29T15:06:01.994Z,32.40
2018-06-29T15:08:30.106Z,31.60
2018-06-29T15:10:58.230Z,31.50
2018-06-29T15:13:26.494Z,31.30
2018-06-29T15:15:54.703Z,31.10
2018-06-29T15:18:22.725Z,32.60
2018-06-29T15:20:50.838Z,33.50
2018-06-29T15:23:18.961Z,35.10
2018-06-29T15:25:47.066Z,35.80
2018-06-29T15:28:15.215Z,36.40
2018-06-29T15:30:43.374Z,37.20
2018-06-29T15:33:11.482Z,38.80
2018-06-29T15:35:39.622Z,40.30
2018-06-29T15:38:07.737Z,41.80
2018-06-29T15:40:35.868Z,43.30
2018-06-29T15:43:03.981Z,43.70
2018-06-29T15:45:32.103Z,42.50
2018-06-29T15:48:00.234Z,40.20
2018-06-29T15:50:28.343Z,38.90
2018-06-29T15:52:56.471Z,38.40
2018-06-29T15:55:24.597Z,37.90
2018-06-29T16:00:27.157Z,36.30
2018-06-29T16:02:55.281Z,36.20
2018-06-29T16:05:23.419Z,36.30
2018-06-29T16:07:51.538Z,36.90
2018-06-29T16:10:19.645Z,37.00
2018-06-29T16:12:47.724Z,37.70
2018-06-29T16:15:15.838Z,39.10
2018-06-29T16:17:43.945Z,40.40
2018-06-29T16:20:12.070Z,41.20
2018-06-29T16:22:40.186Z,41.40
2018-06-29T16:25:08.349Z,41.60
2018-06-29T16:27:36.464Z,40.60
2018-06-29T16:30:05.095Z,39.90
2018-06-29T16:32:33.188Z,39.50
2018-06-29T16:35:01.310Z,38.00
2018-06-29T16:37:29.415Z,37.90
2018-06-29T16:39:57.527Z,38.50
2018-06-29T16:42:25.695Z,39.00
2018-06-29T16:44:53.806Z,40.00
2018-06-29T16:47:21.898Z,41.70
2018-06-29T16:49:50.039Z,41.20
2018-06-29T16:52:18.136Z,41.50
2018-06-29T16:54:46.245Z,41.70
2018-06-29T16:57:14.359Z,41.50
2018-06-29T16:59:42.461Z,40.60
2018-06-29T17:02:10.661Z,39.50
2018-06-29T17:04:38.803Z,39.10
2018-06-29T17:07:06.986Z,38.70
2018-06-29T17:09:35.097Z,38.00
2018-06-29T17:12:03.189Z,37.90
2018-06-29T17:14:31.288Z,37.80
2018-06-29T17:16:59.378Z,37.20
2018-06-29T17:19:27.491Z,37.80
2018-06-29T17:21:55.608Z,39.40
2018-06-29T17:24:23.790Z,41.40
2018-06-29T17:26:52.014Z,43.20
2018-06-29T17:29:20.163Z,44.80
2018-06-29T17:31:48.247Z,46.20
2018-06-29T17:34:16.448Z,47.20
2018-06-29T17:36:44.479Z,48.10
2018-06-29T17:39:12.643Z,48.70
2018-06-29T17:41:40.754Z,49.30
2018-06-29T17:44:09.000Z,49.70
2018-06-29T17:46:37.440Z,50.20
2018-06-29T17:49:05.554Z,50.70
2018-06-29T17:51:33.724Z,51.00
2018-06-29T17:54:01.826Z,51.30
2018-06-29T17:56:29.939Z,51.80
2018-06-29T17:58:58.034Z,52.20
2018-06-29T18:01:26.139Z,52.30
2018-06-29T18:03:54.249Z,52.30
2018-06-29T18:06:22.363Z,52.40
2018-06-29T18:08:50.719Z,52.90
2018-06-29T18:11:18.998Z,53.20
2018-06-29T18:13:47.093Z,53.60
2018-06-29T18:16:15.266Z,53.60
2018-06-29T18:18:43.289Z,53.70
2018-06-29T18:21:11.421Z,54.00
2018-06-29T18:23:39.617Z,54.20
2018-06-29T18:26:07.734Z,54.50
2018-06-29T18:28:35.929Z,54.70
2018-06-29T18:31:04.059Z,54.90
2018-06-29T18:33:32.165Z,55.80
2018-06-29T18:36:00.282Z,56.40
2018-06-29T18:38:28.474Z,57.20
2018-06-29T18:40:57.269Z,57.20
2018-06-29T18:43:25.805Z,57.70
2018-06-29T18:45:54.019Z,58.10
2018-06-29T18:48:22.369Z,58.60
2018-06-29T18:50:50.470Z,58.80
2018-06-29T18:53:18.654Z,59.20
2018-06-29T18:55:46.826Z,59.40
2018-06-29T18:58:14.941Z,59.70
2018-06-29T19:00:43.141Z,60.40
2018-06-29T19:03:11.246Z,60.90
2018-06-29T19:05:39.441Z,61.60
2018-06-29T19:08:07.614Z,62.10
2018-06-29T19:10:35.810Z,62.40
2018-06-29T19:13:03.958Z,62.70
2018-06-29T19:15:32.098Z,63.20
2018-06-29T19:18:00.311Z,63.60
2018-06-29T19:20:28.469Z,63.90
2018-06-29T19:22:56.585Z,64.20
2018-06-29T19:25:24.751Z,64.60
2018-06-29T19:27:53.058Z,65.00
2018-06-29T19:30:21.168Z,65.50
2018-06-29T19:32:49.310Z,66.70
2018-06-29T19:35:17.579Z,67.00
2018-06-29T19:37:45.763Z,67.40
2018-06-29T19:40:13.990Z,68.10
2018-06-29T19:42:42.123Z,69.20
2018-06-29T19:45:10.258Z,70.40
2018-06-29T19:47:38.395Z,71.20
2018-06-29T19:50:06.536Z,72.00
2018-06-29T19:52:34.766Z,73.30
2018-06-29T19:55:02.884Z,74.20
2018-06-29T19:57:30.992Z,75.80
2018-06-29T19:59:59.120Z,76.70
2018-06-29T20:02:27.686Z,77.40
2018-06-29T20:04:57.148Z,78.20
2018-06-29T20:07:25.662Z,78.90
2018-06-29T20:09:53.810Z,79.20
2018-06-29T20:12:21.941Z,79.70
2018-06-29T20:14:50.061Z,79.70
2018-06-29T20:17:18.200Z,80.40
2018-06-29T20:19:46.570Z,80.50
2018-06-29T20:22:14.698Z,81.60
2018-06-29T20:24:42.822Z,82.90
2018-06-29T20:27:11.004Z,83.80
2018-06-29T20:29:39.110Z,84.60
2018-06-29T20:32:07.293Z,85.40
2018-06-29T20:34:35.406Z,85.90
2018-06-29T20:37:03.554Z,86.00
2018-06-29T20:39:31.686Z,86.20
2018-06-29T20:41:59.834Z,86.70
2018-06-29T20:44:27.943Z,87.20
2018-06-29T20:46:56.093Z,88.30
2018-06-29T20:49:30.678Z,88.90
2018-06-29T20:51:58.817Z,89.40
2018-06-29T20:54:26.950Z,89.90
2018-06-29T20:56:55.066Z,90.00
2018-06-29T20:59:23.194Z,90.00
2018-06-29T21:01:51.341Z,90.00
2018-06-29T21:04:19.472Z,90.50
2018-06-29T21:06:47.610Z,90.60
2018-06-29T21:09:15.744Z,90.60
2018-06-29T21:11:44.501Z,90.70
2018-06-29T21:14:13.030Z,90.90
2018-06-29T21:16:41.154Z,91.00
2018-06-29T21:19:09.675Z,91.30
2018-06-29T21:21:37.833Z,91.40
2018-06-29T21:24:05.965Z,91.70
2018-06-29T21:26:34.167Z,92.10
2018-06-29T21:29:02.283Z,92.50
2018-06-29T21:31:30.638Z,92.80
2018-06-29T21:33:58.837Z,93.10
2018-06-29T21:36:27.064Z,93.00
2018-06-29T21:38:55.266Z,93.30
2018-06-29T21:41:23.382Z,93.60
2018-06-29T21:43:51.497Z,93.80
2018-06-29T21:46:19.607Z,94.00
2018-06-29T21:48:47.810Z,94.10
2018-06-29T21:51:15.931Z,94.20
2018-06-29T21:53:44.043Z,94.30
2018-06-29T21:56:12.155Z,94.60
2018-06-29T21:58:40.390Z,94.70
2018-06-29T22:01:08.503Z,94.90
2018-06-29T22:03:36.602Z,95.10
2018-06-29T22:06:04.734Z,95.20
2018-06-29T22:08:32.843Z,95.40
2018-06-29T22:11:00.955Z,95.50
2018-06-29T22:13:29.062Z,95.60
2018-06-29T22:15:57.178Z,95.70
2018-06-29T22:18:25.277Z,95.80
2018-06-29T22:20:53.422Z,95.90
2018-06-29T22:23:21.562Z,96.00
2018-06-29T22:25:49.668Z,96.20
2018-06-29T22:28:17.794Z,96.30
2018-06-29T22:30:46.010Z,96.30
2018-06-29T22:33:14.115Z,96.50
2018-06-29T22:35:42.223Z,96.70
2018-06-29T22:38:10.332Z,96.90
2018-06-29T22:40:38.457Z,97.00
2018-06-29T22:43:06.582Z,97.40
2018-06-29T22:45:34.671Z,97.50
2018-06-29T22:48:02.786Z,97.60
2018-06-29T22:50:30.923Z,97.70
2018-06-29T22:52:59.043Z,97.80
2018-06-29T22:55:27.154Z,97.80
2018-06-29T22:57:55.274Z,97.90
2018-06-29T23:00:23.505Z,97.90
2018-06-29T23:02:52.090Z,98.10
2018-06-29T23:05:20.190Z,98.10
2018-06-29T23:07:48.333Z,98.20
2018-06-29T23:10:16.465Z,98.40
2018-06-29T23:12:44.681Z,98.50
2018-06-29T23:15:12.802Z,98.60
2018-06-29T23:17:40.901Z,98.60
2018-06-29T23:20:09.025Z,98.70
2018-06-29T23:22:37.126Z,99.00
2018-06-29T23:25:05.245Z,99.00
2018-06-29T23:27:33.354Z,99.10
2018-06-29T23:30:01.470Z,99.10
2018-06-29T23:32:29.595Z,99.20
2018-06-29T23:34:57.723Z,99.20
2018-06-29T23:37:25.857Z,99.30
2018-06-29T23:39:53.961Z,99.30
2018-06-29T23:42:22.062Z,99.50
2018-06-29T23:44:50.180Z,99.60
2018-06-29T23:47:18.282Z,99.70
2018-06-29T23:49:46.429Z,99.80
2018-06-29T23:52:14.625Z,99.90
2018-06-29T23:54:42.745Z,99.90
2018-06-29T23:57:10.858Z,99.90
2018-06-29T23:59:38.958Z,99.90
